Time;durP1;ratioP1;P1;durP2;ratioP2;P2;SDS_P1;SDS_P2;PMS_P1;PMS_P2;Temp;Humidity;BMP_temperature;BMP_pressure;BME280_temperature;BME280_humidity;BME280_pressure;Samples;Min_cycle;Max_cycle;Signal;HPM_P1;HPM_P2
2021/12/09 00:01:32;;;;;;;9.80;5.90;;;;;;;6.60;63.18;99860.05;117398;1186;21844;-56
2021/12/09 00:04:03;;;;;;;9.60;6.10;;;;;;;6.61;63.37;99860.21;117354;1185;22697;-57
2021/12/09 00:06:31;;;;;;;10.40;6.70;;;;;;;6.59;63.14;99864.58;117348;1186;21868;-57
2021/12/09 00:09:05;;;;;;;7.30;5.10;;;;;;;6.54;63.15;99867.91;117253;1186;21854;-61
2021/12/09 00:11:42;;;;;;;10.10;6.30;;;;;;;6.49;63.38;99868.98;117158;1182;21860;-57
2021/12/09 00:14:16;;;;;;;9.00;6.20;;;;;;;6.54;63.35;99869.48;117304;1186;21863;-60
2021/12/09 00:16:44;;;;;;;8.80;6.10;;;;;;;6.58;63.15;99870.86;117293;1182;21922;-60
2021/12/09 00:19:46;;;;;;;7.80;5.40;;;;;;;6.60;63.36;99872.95;117332;1182;21847;-60
2021/12/09 00:22:29;;;;;;;9.20;5.80;;;;;;;6.59;63.08;99877.48;117383;1189;22973;-56
2021/12/09 00:24:57;;;;;;;10.00;5.90;;;;;;;6.59;63.22;99878.70;117383;1185;21855;-57
2021/12/09 00:27:26;;;;;;;9.00;6.10;;;;;;;6.55;63.32;99885.16;117396;1186;21881;-56
2021/12/09 00:29:54;;;;;;;8.90;5.80;;;;;;;6.46;63.49;99886.23;117390;1182;21864;-56
2021/12/09 00:32:26;;;;;;;9.30;6.20;;;;;;;6.48;63.43;99885.70;117408;1186;22889;-56
2021/12/09 00:34:54;;;;;;;9.90;6.50;;;;;;;6.45;63.17;99888.50;117341;1182;21851;-56
2021/12/09 00:37:36;;;;;;;10.20;6.60;;;;;;;6.44;63.31;99893.04;117362;1186;24285;-56
2021/12/09 00:40:07;;;;;;;10.40;6.80;;;;;;;6.42;63.59;99890.95;117417;1182;21892;-60
2021/12/09 00:42:35;;;;;;;11.30;7.50;;;;;;;6.41;63.59;99892.35;117217;1188;23435;-56
2021/12/09 00:45:04;;;;;;;9.20;6.30;;;;;;;6.39;63.50;99895.85;117350;1185;21853;-60
2021/12/09 00:47:33;;;;;;;10.10;6.50;;;;;;;6.39;63.15;99896.55;117371;1186;22010;-59
2021/12/09 00:50:03;;;;;;;11.20;6.70;;;;;;;6.39;63.30;99898.83;117244;1189;22941;-56
2021/12/09 00:52:33;;;;;;;8.90;6.50;;;;;;;6.38;63.45;99902.13;117353;1183;23488;-60
2021/12/09 00:55:11;;;;;;;10.60;7.00;;;;;;;6.38;63.81;99903.17;117392;1186;22922;-57
2021/12/09 00:57:41;;;;;;;9.90;7.00;;;;;;;6.38;63.66;99903.88;117063;1183;21902;-57
2021/12/09 01:00:20;;;;;;;11.30;7.00;;;;;;;6.37;63.66;99902.84;117442;1184;21855;-57
2021/12/09 01:02:48;;;;;;;12.90;7.90;;;;;;;6.43;63.49;99901.06;117309;1186;23894;-56
2021/12/09 01:05:17;;;;;;;13.20;7.50;;;;;;;6.53;63.11;99903.12;117534;1182;23432;-57
2021/12/09 01:07:45;;;;;;;10.20;6.90;;;;;;;6.55;62.95;99900.34;117341;1189;21881;-57
2021/12/09 01:10:14;;;;;;;9.60;6.80;;;;;;;6.58;63.33;99903.80;117358;1185;23515;-57
2021/12/09 01:12:43;;;;;;;12.20;7.80;;;;;;;6.60;63.28;99904.85;117365;1183;21866;-60
2021/12/09 01:15:12;;;;;;;11.40;7.30;;;;;;;6.60;63.28;99906.95;117372;1185;21854;-59
2021/12/09 01:17:41;;;;;;;11.30;7.80;;;;;;;6.60;63.13;99904.50;117385;1180;21858;-60
2021/12/09 01:20:11;;;;;;;12.80;8.30;;;;;;;6.58;63.22;99904.34;117390;1185;21875;-60
2021/12/09 01:22:42;;;;;;;12.50;8.20;;;;;;;6.58;63.27;99907.81;117342;1184;22235;-60
2021/12/09 01:25:12;;;;;;;10.20;7.20;;;;;;;6.57;62.75;99909.20;117359;1182;22300;-57
2021/12/09 01:27:43;;;;;;;14.10;8.10;;;;;;;6.51;63.34;99912.20;117356;1186;21857;-57
2021/12/09 01:30:15;;;;;;;12.00;7.90;;;;;;;6.39;63.24;99914.84;117332;1182;21874;-57
2021/12/09 01:32:51;;;;;;;12.50;8.30;;;;;;;6.36;63.73;99916.25;117347;1186;23534;-60
2021/12/09 01:35:31;;;;;;;12.50;7.60;;;;;;;6.32;63.64;99914.52;117351;1181;21866;-57
2021/12/09 01:38:01;;;;;;;12.50;8.20;;;;;;;6.30;63.45;99913.82;117364;1185;21858;-57
2021/12/09 01:40:30;;;;;;;11.60;8.50;;;;;;;6.28;63.11;99917.13;117392;1182;21916;-57
2021/12/09 01:42:59;;;;;;;12.20;7.60;;;;;;;6.26;63.47;99916.61;117481;1185;21859;-57
2021/12/09 01:45:27;;;;;;;13.00;8.40;;;;;;;6.24;63.54;99917.66;117383;1186;22940;-57
2021/12/09 01:47:55;;;;;;;13.30;7.90;;;;;;;6.23;63.44;99922.02;117371;1183;21864;-57
2021/12/09 01:50:23;;;;;;;13.00;8.40;;;;;;;6.23;63.54;99924.63;117354;1185;21857;-56
2021/12/09 01:52:52;;;;;;;12.40;8.90;;;;;;;6.21;63.78;99921.85;117317;1186;21863;-57
2021/12/09 01:55:21;;;;;;;13.40;8.40;;;;;;;6.21;63.71;99919.58;117332;1184;21911;-56
2021/12/09 01:57:50;;;;;;;12.90;8.20;;;;;;;6.22;63.58;99923.58;117132;1186;23713;-56
2021/12/09 02:00:23;;;;;;;10.70;7.40;;;;;;;6.23;63.51;99927.77;117363;1186;21861;-61
2021/12/09 02:02:52;;;;;;;13.40;8.00;;;;;;;6.23;63.66;99934.39;117330;1186;22915;-56
2021/12/09 02:05:26;;;;;;;14.40;8.40;;;;;;;6.22;63.70;99937.88;117266;1184;21940;-56
2021/12/09 02:07:55;;;;;;;12.60;8.50;;;;;;;6.22;63.57;99943.27;117307;1183;21854;-60
2021/12/09 02:10:23;;;;;;;15.80;10.00;;;;;;;6.24;63.59;99942.40;117344;1186;23676;-56
2021/12/09 02:12:52;;;;;;;15.30;9.30;;;;;;;6.28;63.29;99947.10;117092;1184;21908;-59
2021/12/09 02:15:29;;;;;;;14.10;9.20;;;;;;;6.28;63.76;99951.45;117327;1181;21858;-60
2021/12/09 02:17:59;;;;;;;14.00;8.40;;;;;;;6.27;63.22;99955.81;117349;1185;23465;-59
2021/12/09 02:20:28;;;;;;;14.90;9.80;;;;;;;6.28;63.39;99962.08;117367;1186;21902;-56
2021/12/09 02:22:57;;;;;;;15.50;10.30;;;;;;;6.25;63.64;99966.27;117293;1186;21876;-56
2021/12/09 02:25:25;;;;;;;17.10;10.30;;;;;;;6.23;63.56;99973.06;117262;1184;23489;-60
2021/12/09 02:27:53;;;;;;;18.10;10.30;;;;;;;6.21;63.49;99977.95;117367;1184;22842;-60
2021/12/09 02:30:21;;;;;;;16.60;10.80;;;;;;;6.23;63.54;99978.13;117343;1184;21905;-60
2021/12/09 02:32:49;;;;;;;18.00;10.90;;;;;;;6.29;63.33;99978.98;117389;1186;21883;-60
2021/12/09 02:35:17;;;;;;;18.70;11.80;;;;;;;6.26;63.41;99981.60;117341;1186;21969;-60
2021/12/09 02:37:45;;;;;;;17.40;11.30;;;;;;;6.17;63.50;99987.71;117313;1186;21858;-60
2021/12/09 02:40:14;;;;;;;19.60;12.10;;;;;;;6.15;63.52;99995.39;117403;1184;23480;-58
2021/12/09 02:42:42;;;;;;;18.50;11.30;;;;;;;6.13;63.40;99997.13;117352;1186;22913;-57
2021/12/09 02:45:10;;;;;;;19.50;11.10;;;;;;;6.10;63.39;100001.83;117338;1186;22295;-61
2021/12/09 02:47:39;;;;;;;20.90;11.80;;;;;;;6.08;63.32;100000.09;117322;1185;21907;-60
2021/12/09 02:50:08;;;;;;;21.10;11.90;;;;;;;6.06;63.48;100003.56;117323;1184;23551;-60
2021/12/09 02:52:38;;;;;;;24.80;12.60;;;;;;;6.08;63.51;100006.88;117418;1185;21865;-60
2021/12/09 02:55:07;;;;;;;19.00;12.70;;;;;;;6.08;63.61;100010.52;117329;1186;21908;-61
2021/12/09 02:57:35;;;;;;;23.00;12.40;;;;;;;6.08;63.35;100019.08;117338;1185;21900;-56
2021/12/09 03:00:06;;;;;;;25.30;14.80;;;;;;;6.07;63.23;100023.95;117417;1184;21852;-57
2021/12/09 03:02:34;;;;;;;29.50;17.40;;;;;;;6.07;63.38;100028.13;117288;1185;21859;-56
2021/12/09 03:05:04;;;;;;;30.80;20.40;;;;;;;6.06;63.38;100035.10;117376;1185;21895;-57
2021/12/09 03:07:36;;;;;;;35.70;20.80;;;;;;;6.03;63.45;100039.80;117355;1184;23583;-57
2021/12/09 03:10:18;;;;;;;35.50;21.30;;;;;;;6.00;63.50;100047.44;117347;1185;22912;-57
2021/12/09 03:12:52;;;;;;;34.60;20.30;;;;;;;5.96;63.01;100047.24;117407;1185;22849;-60
2021/12/09 03:15:21;;;;;;;33.30;20.10;;;;;;;5.95;63.17;100047.77;117346;1186;21902;-59
2021/12/09 03:17:49;;;;;;;33.90;21.50;;;;;;;5.95;63.36;100050.20;117308;1182;21862;-59
2021/12/09 03:20:18;;;;;;;37.80;20.80;;;;;;;5.92;63.34;100052.98;117344;1184;23248;-59
2021/12/09 03:22:47;;;;;;;38.70;21.40;;;;;;;5.88;63.19;100053.68;117359;1184;23042;-60
2021/12/09 03:25:17;;;;;;;38.30;21.40;;;;;;;5.87;63.35;100064.29;117465;1185;23462;-57
2021/12/09 03:27:45;;;;;;;38.10;22.30;;;;;;;5.85;63.16;100061.16;117336;1186;22902;-56
2021/12/09 03:30:15;;;;;;;41.10;22.50;;;;;;;5.87;62.96;100065.69;117325;1186;21858;-60
2021/12/09 03:32:43;;;;;;;37.20;21.20;;;;;;;5.83;63.03;100069.86;117358;1185;23598;-60
2021/12/09 03:35:12;;;;;;;37.30;21.20;;;;;;;5.81;62.89;100075.08;117314;1182;21866;-60
2021/12/09 03:37:42;;;;;;;42.00;21.70;;;;;;;5.81;63.13;100078.73;117360;1186;22969;-60
2021/12/09 03:40:12;;;;;;;36.90;21.90;;;;;;;5.82;62.97;100079.60;117450;1185;21855;-60
2021/12/09 03:42:43;;;;;;;36.90;21.50;;;;;;;5.82;63.08;100080.30;117363;1186;22915;-60
2021/12/09 03:45:11;;;;;;;39.40;21.40;;;;;;;5.80;62.81;100079.95;117343;1185;21867;-57
2021/12/09 03:47:39;;;;;;;39.30;22.70;;;;;;;5.76;62.97;100080.46;117308;1186;22906;-62
2021/12/09 03:50:10;;;;;;;43.50;22.00;;;;;;;5.81;62.88;100083.96;117149;1186;23712;-60
2021/12/09 03:52:38;;;;;;;37.70;22.80;;;;;;;5.83;63.03;100081.88;117452;1185;23513;-59
2021/12/09 03:55:08;;;;;;;41.10;24.50;;;;;;;5.76;63.18;100084.64;117324;1186;23433;-56
2021/12/09 03:57:36;;;;;;;40.90;22.80;;;;;;;5.75;62.83;100089.52;117397;1185;21898;-56
2021/12/09 04:00:07;;;;;;;49.10;26.50;;;;;;;5.75;62.96;100086.55;117302;1185;21854;-60
2021/12/09 04:02:36;;;;;;;40.70;22.60;;;;;;;5.70;62.74;100087.93;117346;1186;22850;-60
2021/12/09 04:05:06;;;;;;;48.00;25.60;;;;;;;5.63;63.00;100085.83;117380;1188;22912;-57
2021/12/09 04:07:34;;;;;;;;;;;;;;;5.61;63.04;100086.86;117385;1186;23628;-60
2021/12/09 04:10:04;;;;;;;35.60;18.90;;;;;;;5.64;63.22;100086.88;117381;1182;22909;-63
2021/12/09 04:12:34;;;;;;;44.80;22.70;;;;;;;5.62;63.30;100086.86;117355;1176;21867;-56
2021/12/09 04:15:03;;;;;;;42.80;23.20;;;;;;;5.60;63.35;100089.13;117230;1186;21861;-59
2021/12/09 04:17:31;;;;;;;47.90;25.30;;;;;;;5.59;63.48;100093.64;117442;1185;24248;-56
2021/12/09 04:19:59;;;;;;;47.40;26.10;;;;;;;5.60;63.33;100091.73;117351;1181;21961;-56
2021/12/09 04:22:28;;;;;;;53.20;27.50;;;;;;;5.66;63.41;100098.20;117342;1185;21864;-57
2021/12/09 04:24:56;;;;;;;50.90;25.40;;;;;;;5.71;63.37;100101.52;117565;1185;21858;-60
2021/12/09 04:27:25;;;;;;;49.00;24.10;;;;;;;5.68;63.17;100101.17;117338;1185;21876;-58
2021/12/09 04:29:53;;;;;;;45.80;24.50;;;;;;;5.72;62.98;100101.35;117444;1183;21907;-60
2021/12/09 04:32:24;;;;;;;46.10;23.40;;;;;;;5.72;63.23;100106.23;117296;1182;24200;-60
2021/12/09 04:34:58;;;;;;;46.50;24.00;;;;;;;5.73;63.17;100109.70;117268;1185;21908;-57
2021/12/09 04:37:27;;;;;;;51.80;24.90;;;;;;;5.75;62.83;100116.31;117391;1186;21867;-57
2021/12/09 04:39:55;;;;;;;45.30;24.40;;;;;;;5.75;63.07;100118.77;117350;1185;22826;-60
2021/12/09 04:42:23;;;;;;;45.40;24.20;;;;;;;5.77;62.94;100124.33;117291;1186;21861;-58
2021/12/09 04:44:51;;;;;;;47.20;24.60;;;;;;;5.80;63.01;100127.48;117298;1184;24138;-56
2021/12/09 04:47:19;;;;;;;46.00;23.90;;;;;;;5.79;62.75;100129.75;117365;1186;22324;-59
2021/12/09 04:49:48;;;;;;;49.10;24.40;;;;;;;5.76;62.60;100131.48;117341;1184;22913;-56
2021/12/09 04:52:16;;;;;;;47.00;23.50;;;;;;;5.74;62.84;100131.64;117108;1187;21858;-56
2021/12/09 04:54:44;;;;;;;43.60;23.80;;;;;;;5.73;62.91;100134.26;117356;1186;23467;-56
2021/12/09 04:57:12;;;;;;;46.50;24.90;;;;;;;5.73;62.98;100137.39;117472;1185;21858;-58
2021/12/09 04:59:40;;;;;;;48.40;24.10;;;;;;;5.73;62.87;100138.96;117205;1184;21854;-56
2021/12/09 05:02:15;;;;;;;41.90;22.50;;;;;;;5.70;62.97;100144.70;117297;1184;21859;-56
2021/12/09 05:04:43;;;;;;;48.60;24.90;;;;;;;5.64;62.99;100151.98;117380;1185;21864;-59
2021/12/09 05:07:11;;;;;;;48.30;23.90;;;;;;;5.64;63.05;100154.77;117361;1185;21861;-58
2021/12/09 05:09:49;;;;;;;46.00;24.10;;;;;;;5.61;62.95;100157.18;117328;1185;23547;-57
2021/12/09 05:12:19;;;;;;;50.70;25.30;;;;;;;5.56;62.83;100158.90;117401;1186;22648;-61
2021/12/09 05:14:48;;;;;;;45.40;23.70;;;;;;;5.50;63.14;100160.80;117409;1182;22893;-62
2021/12/09 05:17:17;;;;;;;47.20;22.40;;;;;;;5.54;62.95;100162.71;117334;1185;21999;-60
2021/12/09 05:19:45;;;;;;;46.10;23.40;;;;;;;5.57;63.03;100166.73;117342;1186;21861;-62
2021/12/09 05:22:14;;;;;;;36.10;20.60;;;;;;;5.52;62.84;100167.94;117365;1189;21960;-61
2021/12/09 05:24:44;;;;;;;50.90;25.30;;;;;;;5.48;62.76;100170.00;117355;1184;21848;-60
2021/12/09 05:27:14;;;;;;;49.40;23.20;;;;;;;5.46;62.92;100171.39;117382;1185;21863;-62
2021/12/09 05:29:44;;;;;;;54.20;25.40;;;;;;;5.43;62.95;100168.41;117401;1185;21882;-60
2021/12/09 05:32:12;;;;;;;49.40;24.40;;;;;;;5.41;63.00;100174.66;117347;1182;23564;-61
2021/12/09 05:34:43;;;;;;;50.00;24.20;;;;;;;5.38;63.10;100183.17;117328;1184;23462;-59
2021/12/09 05:37:22;;;;;;;53.40;24.30;;;;;;;5.36;62.89;100185.94;117350;1188;22079;-59
2021/12/09 05:39:51;;;;;;;52.00;23.80;;;;;;;5.36;63.03;100190.63;117341;1181;22928;-60
2021/12/09 05:42:20;;;;;;;50.40;23.90;;;;;;;5.38;63.05;100197.09;117332;1184;21861;-61
2021/12/09 05:44:51;;;;;;;55.40;25.60;;;;;;;5.40;62.99;100202.50;117336;1184;22986;-61
2021/12/09 05:47:20;;;;;;;56.80;25.50;;;;;;;5.42;63.04;100207.73;117363;1186;21864;-61
2021/12/09 05:49:48;;;;;;;47.30;23.30;;;;;;;5.41;63.08;100209.81;117360;1186;21865;-61
2021/12/09 05:52:16;;;;;;;45.10;22.00;;;;;;;5.40;63.07;100213.46;117342;1183;21912;-59
2021/12/09 05:54:45;;;;;;;48.00;21.40;;;;;;;5.39;63.03;100216.42;117391;1182;21881;-61
2021/12/09 05:57:13;;;;;;;54.40;24.90;;;;;;;5.38;63.12;100217.10;117410;1185;21898;-59
2021/12/09 05:59:42;;;;;;;44.20;22.10;;;;;;;5.36;63.10;100221.09;117377;1185;22267;-61
2021/12/09 06:02:14;;;;;;;53.90;23.60;;;;;;;5.30;63.32;100223.50;117367;1185;22931;-59
2021/12/09 06:04:43;;;;;;;51.40;23.80;;;;;;;5.37;63.21;100223.02;117364;1184;22619;-59
2021/12/09 06:07:12;;;;;;;36.00;19.20;;;;;;;5.41;63.45;100224.95;117436;1185;21857;-60
2021/12/09 06:09:40;;;;;;;58.80;26.10;;;;;;;5.45;63.17;100226.38;117450;1184;22009;-59
2021/12/09 06:12:09;;;;;;;50.40;24.10;;;;;;;5.41;63.36;100227.57;117332;1184;23450;-61
2021/12/09 06:14:39;;;;;;;57.20;26.00;;;;;;;5.42;63.23;100231.93;117361;1185;22904;-60
2021/12/09 06:17:08;;;;;;;56.00;24.30;;;;;;;5.43;63.33;100232.63;117350;1183;23459;-61
2021/12/09 06:19:37;;;;;;;50.80;23.80;;;;;;;5.50;63.32;100234.77;117377;1180;22888;-61
2021/12/09 06:22:05;;;;;;;49.30;23.70;;;;;;;5.46;63.44;100238.73;117371;1185;21923;-60
2021/12/09 06:24:33;;;;;;;48.20;22.30;;;;;;;5.44;63.16;100239.08;117307;1185;21862;-61
2021/12/09 06:27:03;;;;;;;48.20;24.70;;;;;;;5.43;63.29;100241.16;117320;1185;22456;-61
2021/12/09 06:29:32;;;;;;;42.70;21.30;;;;;;;5.45;63.62;100238.73;117285;1186;24127;-60
2021/12/09 06:32:00;;;;;;;48.00;22.10;;;;;;;5.47;63.38;100243.96;117323;1184;23541;-62
2021/12/09 06:34:29;;;;;;;46.90;21.30;;;;;;;5.46;63.20;100242.92;117272;1183;22856;-62
2021/12/09 06:36:58;;;;;;;45.00;22.80;;;;;;;5.46;63.15;100244.66;117103;1186;23004;-60
2021/12/09 06:39:26;;;;;;;52.60;23.20;;;;;;;5.48;63.13;100246.59;117338;1184;24160;-60
2021/12/09 06:41:55;;;;;;;44.90;21.50;;;;;;;5.49;63.34;100241.03;117305;1186;21902;-62
2021/12/09 06:44:24;;;;;;;50.70;23.60;;;;;;;5.51;63.33;100243.30;117336;1187;21861;-63
2021/12/09 06:46:55;;;;;;;52.30;24.00;;;;;;;5.54;63.54;100246.26;117308;1186;21859;-62
2021/12/09 06:49:25;;;;;;;45.20;23.20;;;;;;;5.61;63.36;100247.54;117317;1182;21984;-62
2021/12/09 06:51:54;;;;;;;57.40;26.40;;;;;;;5.66;63.29;100252.44;117262;1185;22847;-61
2021/12/09 06:54:23;;;;;;;41.60;21.80;;;;;;;5.71;63.44;100255.09;117172;1188;22021;-62
2021/12/09 06:56:51;;;;;;;48.60;24.20;;;;;;;5.74;63.52;100255.43;117316;1185;22010;-60
2021/12/09 06:59:19;;;;;;;50.60;25.00;;;;;;;5.71;63.29;100259.77;117344;1185;23093;-61
2021/12/09 07:01:47;;;;;;;69.00;33.00;;;;;;;5.69;63.33;100266.03;117382;1184;21876;-61
2021/12/09 07:04:16;;;;;;;58.50;28.40;;;;;;;5.71;63.66;100269.52;117370;1182;21856;-60
2021/12/09 07:06:45;;;;;;;56.90;28.70;;;;;;;5.73;63.43;100276.49;117438;1183;21859;-60
2021/12/09 07:09:13;;;;;;;52.00;24.80;;;;;;;5.77;63.44;100276.69;117309;1180;23440;-61
2021/12/09 07:11:50;;;;;;;51.80;25.70;;;;;;;5.80;63.82;100284.02;117324;1184;21896;-62
2021/12/09 07:14:19;;;;;;;48.60;26.50;;;;;;;5.86;63.53;100291.02;117341;1185;21859;-61
2021/12/09 07:16:47;;;;;;;47.90;26.40;;;;;;;5.87;63.50;100293.83;117447;1182;21848;-60
2021/12/09 07:19:17;;;;;;;57.30;28.80;;;;;;;5.84;63.45;100299.02;118532;1184;23472;-59
2021/12/09 07:21:45;;;;;;;49.20;24.40;;;;;;;5.78;63.44;100298.98;117381;1184;21858;-59
2021/12/09 07:24:18;;;;;;;51.30;25.50;;;;;;;5.76;63.81;100309.42;117241;1186;22976;-59
2021/12/09 07:26:46;;;;;;;44.20;23.60;;;;;;;5.74;63.38;100311.67;117480;1183;23456;-61
2021/12/09 07:29:14;;;;;;;43.30;22.40;;;;;;;5.72;63.63;100313.08;117423;1185;21861;-60
2021/12/09 07:31:43;;;;;;;50.10;24.40;;;;;;;5.70;63.30;100316.35;118756;1184;22985;-59
2021/12/09 07:34:11;;;;;;;47.50;23.50;;;;;;;5.64;63.50;100322.41;117359;1185;23535;-60
2021/12/09 07:36:40;;;;;;;43.40;21.80;;;;;;;5.64;63.61;100327.45;117281;1182;23449;-61
2021/12/09 07:39:08;;;;;;;43.60;20.60;;;;;;;5.65;63.44;100330.77;117375;1185;23432;-61
2021/12/09 07:41:36;;;;;;;53.00;25.90;;;;;;;5.66;63.47;100330.95;117380;1185;22824;-60
2021/12/09 07:44:05;;;;;;;54.40;25.10;;;;;;;5.66;63.40;100330.42;117312;1185;23459;-59
2021/12/09 07:46:34;;;;;;;70.00;32.00;;;;;;;5.64;63.43;100337.55;117368;1185;21858;-61
2021/12/09 07:49:03;;;;;;;56.40;26.20;;;;;;;5.63;63.58;100345.20;117270;1185;21861;-59
2021/12/09 07:51:31;;;;;;;60.40;29.00;;;;;;;5.64;63.40;100346.95;117326;1185;21859;-60
2021/12/09 07:54:01;;;;;;;53.40;26.20;;;;;;;5.64;63.51;100349.73;117336;1185;22912;-60
2021/12/09 07:56:30;;;;;;;51.70;24.20;;;;;;;5.63;63.17;100349.55;117328;1187;21881;-59
2021/12/09 07:58:58;;;;;;;45.10;23.10;;;;;;;5.56;63.18;100355.94;117374;1186;21963;-59
2021/12/09 08:01:26;;;;;;;56.00;26.70;;;;;;;5.54;63.28;100357.48;117376;1183;23445;-59
2021/12/09 08:03:56;;;;;;;59.90;27.60;;;;;;;5.55;63.51;100358.89;117480;1184;21841;-61
2021/12/09 08:06:24;;;;;;;51.20;26.60;;;;;;;5.57;63.49;100363.26;117363;1184;22912;-60
2021/12/09 08:08:52;;;;;;;52.30;26.50;;;;;;;5.58;63.59;100362.91;117330;1184;22900;-59
2021/12/09 08:11:20;;;;;;;50.90;26.50;;;;;;;5.61;63.31;100367.81;117281;1184;21867;-60
2021/12/09 08:13:57;;;;;;;48.70;25.00;;;;;;;5.64;63.64;100367.15;117333;1184;21857;-59
2021/12/09 08:16:26;;;;;;;52.80;26.10;;;;;;;5.66;63.70;100365.08;117404;1185;22936;-60
2021/12/09 08:18:56;;;;;;;61.80;26.90;;;;;;;5.71;63.82;100362.33;117326;1185;21857;-61
2021/12/09 08:21:24;;;;;;;52.70;28.30;;;;;;;5.75;63.74;100361.13;117288;1186;23459;-60
2021/12/09 08:23:53;;;;;;;54.00;29.00;;;;;;;5.83;63.61;100356.65;119242;1185;21859;-61
2021/12/09 08:26:21;;;;;;;61.30;26.40;;;;;;;5.86;63.80;100359.12;117331;1186;22652;-60
2021/12/09 08:28:49;;;;;;;56.30;26.80;;;;;;;5.86;63.64;100364.52;117351;1183;21859;-59
2021/12/09 08:31:18;;;;;;;48.30;25.30;;;;;;;5.87;63.87;100366.45;117289;1186;21904;-60
2021/12/09 08:33:49;;;;;;;51.00;26.40;;;;;;;5.89;63.49;100374.45;117410;1186;21863;-60
2021/12/09 08:36:44;;;;;;;54.20;26.40;;;;;;;5.84;63.82;100377.23;117312;1186;21924;-60
2021/12/09 08:39:13;;;;;;;59.20;27.80;;;;;;;5.78;63.54;100382.57;117276;1185;24157;-61
2021/12/09 08:41:43;;;;;;;55.60;26.40;;;;;;;5.75;63.64;100384.80;117333;1185;24124;-60
2021/12/09 08:44:11;;;;;;;53.60;25.50;;;;;;;5.75;63.42;100380.10;117424;1184;22619;-60
2021/12/09 08:46:41;;;;;;;48.10;25.10;;;;;;;5.81;63.52;100376.85;117364;1186;22910;-59
2021/12/09 08:49:10;;;;;;;48.80;25.90;;;;;;;5.83;63.54;100378.60;117328;1183;21855;-59
2021/12/09 08:51:38;;;;;;;50.20;25.90;;;;;;;5.75;63.55;100379.76;117361;1185;22649;-61
2021/12/09 08:54:07;;;;;;;56.60;26.30;;;;;;;5.75;63.77;100377.33;117426;1184;24038;-60
2021/12/09 08:56:39;;;;;;;55.00;27.20;;;;;;;5.76;63.45;100379.60;117307;1186;21868;-60
2021/12/09 08:59:07;;;;;;;77.80;35.20;;;;;;;5.76;63.56;100375.93;117279;1186;23645;-60
2021/12/09 09:01:55;;;;;;;59.60;28.50;;;;;;;5.79;63.70;100373.17;117274;1186;21859;-60
2021/12/09 09:04:23;;;;;;;72.00;36.40;;;;;;;5.86;63.72;100375.84;117260;1185;22087;-60
2021/12/09 09:06:58;;;;;;;61.30;31.30;;;;;;;5.89;63.61;100378.13;117313;1184;24145;-60
2021/12/09 09:09:32;;;;;;;54.60;28.10;;;;;;;5.88;63.81;100373.94;117349;1185;23346;-60
2021/12/09 09:12:01;;;;;;;50.50;26.20;;;;;;;5.85;63.82;100378.10;117310;1185;23600;-60
2021/12/09 09:14:30;;;;;;;54.00;28.30;;;;;;;5.84;63.74;100374.08;117515;1185;21850;-60
2021/12/09 09:16:58;;;;;;;49.60;26.10;;;;;;;5.80;63.64;100374.92;117388;1185;21866;-59
2021/12/09 09:19:27;;;;;;;45.00;26.40;;;;;;;5.79;63.39;100371.77;117350;1185;21859;-60
2021/12/09 09:21:55;;;;;;;50.90;27.60;;;;;;;5.84;63.69;100376.17;117312;1182;22036;-60
2021/12/09 09:24:24;;;;;;;44.10;25.40;;;;;;;5.85;63.39;100373.21;117355;1185;21859;-60
2021/12/09 09:26:52;;;;;;;48.60;26.20;;;;;;;5.86;63.64;100371.30;117277;1184;21865;-60
2021/12/09 09:29:20;;;;;;;45.70;24.90;;;;;;;5.89;63.59;100371.50;117312;1186;21848;-59
2021/12/09 09:31:48;;;;;;;44.10;23.90;;;;;;;5.92;63.66;100369.61;117352;1184;21859;-60
2021/12/09 09:34:16;;;;;;;42.20;24.50;;;;;;;5.97;63.80;100362.85;117377;1186;21857;-60
2021/12/09 09:36:45;;;;;;;37.60;22.80;;;;;;;6.02;63.48;100364.14;117418;1187;23468;-60
2021/12/09 09:39:18;;;;;;;41.70;23.00;;;;;;;6.07;63.65;100367.30;117358;1185;21864;-60
2021/12/09 09:41:58;;;;;;;44.10;24.50;;;;;;;6.10;63.58;100364.00;117327;1185;21859;-60
2021/12/09 09:44:33;;;;;;;;;;;;;;;6.10;63.54;100360.86;117327;1186;21954;-60
2021/12/09 09:47:02;;;;;;;69.90;32.50;;;;;;;6.12;63.70;100359.48;117291;1186;23357;-60
2021/12/09 09:49:34;;;;;;;56.40;31.50;;;;;;;6.14;63.73;100362.64;117341;1186;21859;-60
2021/12/09 09:52:03;;;;;;;34.00;20.10;;;;;;;6.21;63.87;100367.20;117150;1184;21907;-60
2021/12/09 09:54:32;;;;;;;34.60;21.00;;;;;;;6.24;63.67;100364.60;117343;1185;21901;-60
2021/12/09 09:57:01;;;;;;;37.60;21.90;;;;;;;6.33;63.72;100360.98;117296;1185;21862;-59
2021/12/09 09:59:30;;;;;;;41.90;24.30;;;;;;;6.43;63.80;100362.77;117378;1182;24156;-60
2021/12/09 10:02:00;;;;;;;49.00;26.30;;;;;;;6.50;63.82;100364.38;117284;1184;22639;-60
2021/12/09 10:04:38;;;;;;;33.10;20.50;;;;;;;6.58;63.70;100368.08;117360;1184;24146;-59
2021/12/09 10:07:06;;;;;;;32.70;20.10;;;;;;;6.65;63.63;100369.83;117363;1185;21891;-59
2021/12/09 10:09:35;;;;;;;38.50;21.70;;;;;;;6.66;63.88;100368.62;117137;1186;21839;-59
2021/12/09 10:12:04;;;;;;;35.70;21.10;;;;;;;6.71;63.77;100371.95;117304;1184;21879;-61
2021/12/09 10:14:33;;;;;;;31.40;17.80;;;;;;;6.76;63.58;100378.23;117289;1186;23475;-60
2021/12/09 10:17:07;;;;;;;36.40;19.70;;;;;;;6.76;63.53;100380.16;117325;1181;23149;-60
2021/12/09 10:19:37;;;;;;;35.50;20.00;;;;;;;6.74;63.50;100383.13;117369;1183;21975;-60
2021/12/09 10:22:12;;;;;;;31.50;18.90;;;;;;;6.74;63.32;100382.26;117344;1184;23064;-59
2021/12/09 10:24:41;;;;;;;33.90;19.10;;;;;;;6.70;63.21;100385.55;117463;1184;23563;-60
2021/12/09 10:27:24;;;;;;;35.50;20.50;;;;;;;6.65;63.21;100382.57;117309;1186;21994;-60
2021/12/09 10:29:58;;;;;;;30.90;19.60;;;;;;;6.62;63.35;100378.54;117286;1186;21848;-60
2021/12/09 10:32:30;;;;;;;34.10;21.40;;;;;;;6.65;63.40;100377.85;117343;1186;21988;-60
2021/12/09 10:35:17;;;;;;;28.50;17.70;;;;;;;6.62;63.32;100384.66;117318;1184;21861;-60
2021/12/09 10:37:50;;;;;;;32.20;19.30;;;;;;;6.61;63.78;100384.64;117325;1186;21869;-60
2021/12/09 10:40:22;;;;;;;30.50;19.50;;;;;;;6.64;63.50;100383.27;117404;1184;21859;-60
2021/12/09 10:42:52;;;;;;;31.40;19.80;;;;;;;6.66;63.20;100386.58;117326;1186;21896;-60
2021/12/09 10:45:23;;;;;;;31.20;18.20;;;;;;;6.63;63.48;100387.61;117328;1185;23436;-60
2021/12/09 10:48:16;;;;;;;32.10;19.00;;;;;;;6.59;63.61;100391.96;117506;1185;21862;-60
2021/12/09 10:54:06;;;;;;;30.20;18.90;;;;;;;6.56;63.55;100401.36;117279;1185;23590;-59
2021/12/09 10:56:29;;;;;;;28.50;17.80;;;;;;;6.54;63.43;100405.71;117280;1187;22001;-60
2021/12/09 10:58:57;;;;;;;28.30;17.10;;;;;;;6.54;63.46;100409.03;117226;1186;24358;-60
2021/12/09 11:01:26;;;;;;;31.10;18.50;;;;;;;6.52;63.39;100407.80;117073;1187;24211;-60
2021/12/09 11:04:00;;;;;;;28.00;17.70;;;;;;;6.52;63.58;100405.88;117246;1184;23435;-60
2021/12/09 11:06:38;;;;;;;29.50;18.20;;;;;;;6.50;63.72;100406.91;117273;1186;22973;-60
2021/12/09 11:09:08;;;;;;;25.70;17.20;;;;;;;6.50;63.68;100403.60;117320;1186;24157;-61
2021/12/09 11:11:43;;;;;;;32.60;19.80;;;;;;;6.48;63.44;100401.32;117332;1186;21918;-59
2021/12/09 11:14:17;;;;;;;31.80;19.30;;;;;;;6.46;63.93;100405.48;117323;1186;21889;-60
2021/12/09 11:16:49;;;;;;;29.70;18.70;;;;;;;6.42;63.90;100402.85;117357;1182;23717;-60
2021/12/09 11:19:26;;;;;;;28.30;18.10;;;;;;;6.39;63.71;100405.98;117348;1186;21898;-59
2021/12/09 11:21:59;;;;;;;28.90;17.60;;;;;;;6.40;63.82;100406.85;117270;1186;22952;-61
2021/12/09 11:24:34;;;;;;;29.20;17.80;;;;;;;6.42;64.08;100405.81;117376;1184;21862;-60
2021/12/09 11:27:10;;;;;;;32.80;19.10;;;;;;;6.49;63.92;100406.20;117432;1186;21983;-60
2021/12/09 11:29:44;;;;;;;33.40;18.60;;;;;;;6.57;63.74;100409.40;117392;1184;23541;-60
2021/12/09 11:32:38;;;;;;;28.80;18.20;;;;;;;6.64;63.86;100411.67;117346;1188;21848;-59